createdAt,value
2022-10-17T00:02:24.596Z,7.40
2022-10-17T00:04:51.188Z,7.48
2022-10-17T00:07:17.760Z,7.33
2022-10-17T00:09:47.428Z,7.35
2022-10-17T00:12:16.948Z,7.47
2022-10-17T00:14:43.527Z,7.32
2022-10-17T00:17:10.176Z,7.24
2022-10-17T00:19:36.781Z,7.36
2022-10-17T00:22:03.452Z,7.21
2022-10-17T00:24:31.691Z,7.15
2022-10-17T00:26:58.419Z,7.23
2022-10-17T00:29:25.552Z,7.24
2022-10-17T00:31:57.805Z,7.16
2022-10-17T00:34:25.035Z,7.23
2022-10-17T00:36:53.710Z,7.25
2022-10-17T00:39:20.802Z,7.10
2022-10-17T00:41:49.741Z,7.06
2022-10-17T00:44:31.360Z,7.19
2022-10-17T00:47:04.548Z,7.12
2022-10-17T00:49:34.735Z,7.12
2022-10-17T00:52:23.794Z,7.07
2022-10-17T00:54:55.996Z,6.93
2022-10-17T00:57:22.856Z,6.96
2022-10-17T00:59:53.135Z,7.01
2022-10-17T01:02:22.286Z,6.93
2022-10-17T01:04:54.180Z,6.93
2022-10-17T01:07:24.456Z,7.02
2022-10-17T01:09:52.455Z,6.79
2022-10-17T01:12:26.710Z,6.74
2022-10-17T01:15:18.090Z,6.85
2022-10-17T01:17:53.656Z,6.73
2022-10-17T01:20:33.075Z,6.69
2022-10-17T01:23:43.891Z,6.83
2022-10-17T01:26:43.337Z,6.69
2022-10-17T01:29:28.169Z,6.69
2022-10-17T01:32:19.818Z,6.71
2022-10-17T01:34:56.956Z,6.63
2022-10-17T01:37:34.500Z,6.70
2022-10-17T01:40:07.249Z,6.78
2022-10-17T01:42:42.156Z,6.70
2022-10-17T01:45:19.488Z,6.69
2022-10-17T01:47:50.596Z,6.79
2022-10-17T01:50:23.523Z,6.70
2022-10-17T01:53:02.236Z,6.65
2022-10-17T01:55:35.024Z,6.75
2022-10-17T01:58:07.489Z,6.66
2022-10-17T02:00:36.523Z,6.69
2022-10-17T02:03:07.688Z,6.75
2022-10-17T02:05:38.963Z,6.55
2022-10-17T02:08:06.969Z,6.52
2022-10-17T02:10:41.889Z,6.63
2022-10-17T02:13:26.843Z,6.54
2022-10-17T02:16:14.258Z,6.35
2022-10-17T02:19:11.724Z,6.44
2022-10-17T02:22:00.103Z,6.36
2022-10-17T02:24:48.722Z,6.30
2022-10-17T02:27:26.405Z,6.45
2022-10-17T02:30:08.631Z,6.46
2022-10-17T02:32:38.726Z,6.40
2022-10-17T02:35:10.116Z,6.47
2022-10-17T02:37:37.604Z,6.54
2022-10-17T02:40:06.962Z,6.42
2022-10-17T02:42:35.131Z,6.37
2022-10-17T02:45:03.336Z,6.52
2022-10-17T02:47:45.119Z,6.42
2022-10-17T02:50:11.972Z,6.30
2022-10-17T02:52:56.096Z,6.38
2022-10-17T02:55:30.353Z,6.32
2022-10-17T02:58:04.085Z,6.20
2022-10-17T03:00:31.953Z,6.24
2022-10-17T03:03:00.721Z,6.26
2022-10-17T03:05:30.431Z,6.22
2022-10-17T03:07:57.321Z,6.26
2022-10-17T03:10:24.776Z,6.38
2022-10-17T03:12:51.377Z,6.22
2022-10-17T03:15:17.981Z,6.18
2022-10-17T03:20:12.179Z,6.29
2022-10-17T03:22:38.866Z,6.20
2022-10-17T03:25:05.643Z,6.30
2022-10-17T03:27:32.552Z,6.27
2022-10-17T03:29:59.464Z,6.20
2022-10-17T03:32:26.697Z,6.13
2022-10-17T03:34:53.241Z,6.25
2022-10-17T03:37:22.661Z,6.11
2022-10-17T03:39:49.349Z,6.05
2022-10-17T03:42:15.992Z,6.19
2022-10-17T03:44:42.729Z,6.21
2022-10-17T03:47:11.889Z,6.13
2022-10-17T03:49:40.731Z,6.20
2022-10-17T03:52:12.111Z,6.22
2022-10-17T03:54:38.680Z,6.11
2022-10-17T03:57:05.338Z,6.09
2022-10-17T03:59:31.944Z,6.25
2022-10-17T04:01:58.483Z,6.08
2022-10-17T04:04:25.136Z,5.97
2022-10-17T04:06:51.749Z,6.06
2022-10-17T04:09:21.424Z,6.12
2022-10-17T04:11:47.964Z,6.02
2022-10-17T04:14:16.715Z,6.05
2022-10-17T04:16:43.398Z,6.18
2022-10-17T04:19:13.152Z,6.08
2022-10-17T04:21:39.972Z,5.96
2022-10-17T04:24:06.624Z,5.99
2022-10-17T04:26:33.227Z,6.09
2022-10-17T04:28:59.835Z,5.92
2022-10-17T04:31:26.460Z,5.86
2022-10-17T04:33:53.085Z,5.94
2022-10-17T04:36:20.261Z,5.99
2022-10-17T04:38:46.917Z,5.86
2022-10-17T04:41:16.344Z,5.80
2022-10-17T04:43:45.617Z,5.95
2022-10-17T04:46:15.935Z,5.80
2022-10-17T04:48:42.888Z,5.77
2022-10-17T04:51:13.708Z,5.83
2022-10-17T04:53:41.791Z,5.80
2022-10-17T04:56:15.060Z,5.66
2022-10-17T04:58:43.101Z,5.62
2022-10-17T05:01:14.297Z,5.75
2022-10-17T05:03:41.261Z,5.59
2022-10-17T05:06:14.816Z,5.48
2022-10-17T05:08:42.107Z,5.61
2022-10-17T05:11:38.477Z,5.50
2022-10-17T05:14:07.606Z,5.35
2022-10-17T05:16:34.416Z,5.41
2022-10-17T05:19:01.028Z,5.49
2022-10-17T05:21:29.522Z,5.39
2022-10-17T05:23:57.024Z,5.39
2022-10-17T05:26:24.518Z,5.48
2022-10-17T05:28:52.602Z,5.50
2022-10-17T05:31:19.648Z,5.34
2022-10-17T05:33:48.264Z,5.30
2022-10-17T05:36:16.123Z,5.46
2022-10-17T05:38:44.856Z,5.39
2022-10-17T05:41:11.523Z,5.30
2022-10-17T05:43:38.107Z,5.43
2022-10-17T05:46:06.826Z,5.42
2022-10-17T05:48:34.135Z,5.30
2022-10-17T05:51:07.959Z,5.26
2022-10-17T05:53:40.319Z,5.45
2022-10-17T05:56:09.851Z,5.38
2022-10-17T05:58:49.728Z,5.41
2022-10-17T06:01:16.699Z,5.59
2022-10-17T06:03:43.283Z,5.53
2022-10-17T06:06:11.960Z,5.52
2022-10-17T06:08:40.335Z,5.60
2022-10-17T06:11:10.494Z,5.68
2022-10-17T06:13:38.217Z,5.61
2022-10-17T06:16:07.689Z,5.58
2022-10-17T06:18:36.953Z,5.74
2022-10-17T06:21:05.586Z,5.73
2022-10-17T06:23:32.483Z,5.70
2022-10-17T06:26:04.097Z,5.77
2022-10-17T06:28:30.864Z,5.84
2022-10-17T06:30:57.474Z,5.84
2022-10-17T06:33:26.059Z,5.84
2022-10-17T06:35:53.796Z,5.98
2022-10-17T06:38:21.262Z,5.94
2022-10-17T06:40:47.997Z,5.91
2022-10-17T06:43:14.784Z,5.99
2022-10-17T06:45:43.573Z,6.04
2022-10-17T06:48:10.296Z,5.96
2022-10-17T06:50:36.932Z,6.01
2022-10-17T06:53:03.633Z,6.16
2022-10-17T06:55:31.563Z,6.09
2022-10-17T06:57:58.755Z,6.08
2022-10-17T07:00:26.777Z,6.21
2022-10-17T07:02:53.418Z,6.16
2022-10-17T07:05:20.048Z,6.15
2022-10-17T07:07:48.588Z,6.18
2022-10-17T07:10:19.388Z,6.29
2022-10-17T07:12:46.120Z,6.17
2022-10-17T07:15:13.323Z,6.22
2022-10-17T07:17:40.255Z,6.40
2022-10-17T07:20:07.391Z,6.35
2022-10-17T07:22:34.163Z,6.36
2022-10-17T07:25:00.763Z,6.45
2022-10-17T07:27:27.710Z,6.55
2022-10-17T07:29:56.508Z,6.53
2022-10-17T07:32:23.155Z,6.52
2022-10-17T07:34:49.720Z,6.69
2022-10-17T07:37:16.395Z,6.65
2022-10-17T07:39:42.947Z,6.65
2022-10-17T07:42:10.257Z,6.77
2022-10-17T07:44:36.849Z,6.75
2022-10-17T07:47:03.565Z,6.64
2022-10-17T07:49:31.020Z,6.79
2022-10-17T07:51:57.588Z,6.78
2022-10-17T07:54:24.296Z,6.75
2022-10-17T07:56:50.999Z,6.91
2022-10-17T07:59:18.797Z,6.86
2022-10-17T08:01:45.410Z,6.87
2022-10-17T08:04:12.008Z,7.06
2022-10-17T08:06:38.603Z,6.92
2022-10-17T08:09:05.362Z,6.89
2022-10-17T08:11:31.911Z,7.07
2022-10-17T08:13:58.488Z,7.07
2022-10-17T08:16:25.083Z,7.00
2022-10-17T08:18:51.699Z,7.17
2022-10-17T08:21:18.384Z,7.13
2022-10-17T08:23:44.990Z,7.09
2022-10-17T08:26:13.521Z,7.23
2022-10-17T08:28:40.739Z,7.17
2022-10-17T08:31:10.203Z,7.11
2022-10-17T08:33:36.936Z,7.27
2022-10-17T08:36:05.428Z,7.24
2022-10-17T08:38:35.376Z,7.22
2022-10-17T08:41:07.144Z,7.41
2022-10-17T08:44:01.419Z,7.37
2022-10-17T08:46:36.193Z,7.39
2022-10-17T08:49:08.750Z,7.52
2022-10-17T08:51:52.880Z,7.49
2022-10-17T08:54:47.240Z,7.66
2022-10-17T08:57:18.339Z,7.61
2022-10-17T08:59:50.285Z,7.68
2022-10-17T09:02:28.930Z,7.84
2022-10-17T09:05:09.351Z,7.77
2022-10-17T09:07:50.660Z,7.87
2022-10-17T09:10:23.811Z,7.90
2022-10-17T09:13:27.194Z,7.90
2022-10-17T09:16:18.392Z,8.07
2022-10-17T09:18:58.960Z,7.94
2022-10-17T09:21:30.321Z,8.08
2022-10-17T09:24:09.392Z,8.14
2022-10-17T09:26:39.482Z,8.11
2022-10-17T09:29:17.473Z,8.27
2022-10-17T09:31:51.880Z,8.23
2022-10-17T09:34:18.528Z,8.25
2022-10-17T09:36:45.183Z,8.42
2022-10-17T09:39:17.640Z,8.36
2022-10-17T09:41:49.587Z,8.42
2022-10-17T09:44:25.224Z,8.48
2022-10-17T09:47:00.499Z,8.44
2022-10-17T09:49:48.263Z,8.60
2022-10-17T09:52:36.503Z,8.52
2022-10-17T09:55:16.224Z,8.61
2022-10-17T09:58:04.231Z,8.70
2022-10-17T10:00:39.737Z,8.64
2022-10-17T10:03:27.103Z,8.90
2022-10-17T10:05:59.720Z,8.74
2022-10-17T10:08:30.549Z,8.87
2022-10-17T10:11:00.668Z,9.02
2022-10-17T10:13:27.837Z,8.95
2022-10-17T10:15:56.623Z,9.12
2022-10-17T10:18:36.285Z,9.06
2022-10-17T10:21:13.527Z,9.11
2022-10-17T10:23:42.874Z,9.20
2022-10-17T10:26:23.896Z,9.14
2022-10-17T10:29:00.452Z,9.27
2022-10-17T10:31:30.600Z,9.11
2022-10-17T10:33:59.374Z,9.13
2022-10-17T10:36:26.209Z,9.28
2022-10-17T10:38:58.315Z,9.08
2022-10-17T10:41:29.942Z,9.23
2022-10-17T10:43:56.787Z,9.24
2022-10-17T10:46:29.032Z,9.14
2022-10-17T10:48:59.700Z,9.37
2022-10-17T10:51:52.580Z,9.18
2022-10-17T10:54:29.414Z,9.26
2022-10-17T10:57:03.551Z,9.28
2022-10-17T10:59:39.665Z,9.16
2022-10-17T11:02:20.694Z,9.37
2022-10-17T11:04:50.071Z,9.17
2022-10-17T11:07:39.698Z,9.32
2022-10-17T11:10:17.515Z,9.24
2022-10-17T11:12:56.657Z,9.20
2022-10-17T11:15:27.140Z,9.40
2022-10-17T11:18:03.114Z,9.16
2022-10-17T11:20:48.308Z,9.34
2022-10-17T11:23:24.078Z,9.27
2022-10-17T11:25:52.888Z,9.26
2022-10-17T11:28:23.117Z,9.46
2022-10-17T11:31:13.442Z,9.27
2022-10-17T11:34:08.001Z,9.46
2022-10-17T11:36:38.293Z,9.39
2022-10-17T11:39:07.803Z,9.34
2022-10-17T11:41:48.771Z,9.50
2022-10-17T11:44:27.320Z,9.22
2022-10-17T11:47:02.682Z,9.39
2022-10-17T11:49:38.260Z,9.32
2022-10-17T11:53:04.303Z,9.29
2022-10-17T11:55:26.552Z,9.27
2022-10-17T11:58:06.575Z,9.16
2022-10-17T12:00:53.001Z,9.33
2022-10-17T12:03:41.469Z,9.09
2022-10-17T12:06:29.611Z,9.16
2022-10-17T12:08:57.051Z,9.11
2022-10-17T12:11:50.823Z,9.04
2022-10-17T12:14:40.796Z,9.16
2022-10-17T12:17:25.300Z,8.97
2022-10-17T12:19:51.893Z,9.17
2022-10-17T12:22:26.531Z,9.17
2022-10-17T12:24:55.124Z,9.04
2022-10-17T12:27:33.427Z,9.19
2022-10-17T12:30:11.649Z,9.05
2022-10-17T12:33:07.430Z,9.26
2022-10-17T12:35:36.699Z,9.17
2022-10-17T12:38:14.337Z,9.24
2022-10-17T12:40:48.874Z,9.35
2022-10-17T12:43:15.890Z,9.27
2022-10-17T12:45:58.993Z,9.41
2022-10-17T12:48:34.605Z,9.28
2022-10-17T12:54:12.822Z,9.34
2022-10-17T12:56:45.762Z,9.23
2022-10-17T12:59:15.154Z,9.41
2022-10-17T13:01:46.575Z,9.20
2022-10-17T13:04:13.624Z,9.32
2022-10-17T13:06:49.021Z,9.27
2022-10-17T13:09:31.424Z,9.25
2022-10-17T13:12:03.219Z,9.40
2022-10-17T13:14:31.854Z,9.21
2022-10-17T13:16:59.562Z,9.25
2022-10-17T13:19:32.322Z,9.25
2022-10-17T13:22:06.544Z,9.09
2022-10-17T13:24:36.865Z,9.27
2022-10-17T13:27:05.233Z,9.09
2022-10-17T13:29:33.288Z,9.06
2022-10-17T13:32:03.986Z,9.14
2022-10-17T13:34:33.391Z,8.89
2022-10-17T13:37:10.588Z,9.07
2022-10-17T13:40:11.397Z,8.82
2022-10-17T13:42:39.175Z,8.76
2022-10-17T13:45:21.111Z,8.87
2022-10-17T13:47:47.929Z,8.65
2022-10-17T13:50:43.192Z,8.82
2022-10-17T13:53:12.671Z,8.63
2022-10-17T13:55:40.968Z,8.57
2022-10-17T13:58:26.233Z,8.64
2022-10-17T14:00:53.439Z,8.44
2022-10-17T14:03:21.599Z,8.63
2022-10-17T14:06:11.497Z,8.52
2022-10-17T14:08:46.149Z,8.61
2022-10-17T14:11:25.347Z,8.74
2022-10-17T14:13:54.728Z,8.47
2022-10-17T14:16:23.229Z,8.65
2022-10-17T14:18:54.137Z,8.55
2022-10-17T14:21:40.952Z,8.42
2022-10-17T14:24:30.191Z,8.51
2022-10-17T14:26:59.757Z,8.28
2022-10-17T14:29:30.584Z,8.34
2022-10-17T14:32:10.889Z,8.29
2022-10-17T14:34:39.588Z,8.19
2022-10-17T14:37:24.717Z,8.36
2022-10-17T14:39:52.017Z,8.10
2022-10-17T14:42:23.096Z,8.16
2022-10-17T14:44:52.102Z,8.22
2022-10-17T14:47:43.118Z,8.03
2022-10-17T14:50:10.611Z,8.18
2022-10-17T14:52:39.153Z,8.10
2022-10-17T14:55:27.568Z,8.01
2022-10-17T14:57:54.162Z,8.17
2022-10-17T15:00:22.253Z,7.98
2022-10-17T15:02:50.630Z,8.02
2022-10-17T15:05:17.933Z,8.12
2022-10-17T15:07:44.616Z,7.97
2022-10-17T15:10:28.396Z,8.09
2022-10-17T15:12:59.320Z,8.06
2022-10-17T15:15:38.173Z,7.91
2022-10-17T15:18:05.211Z,8.10
2022-10-17T15:20:32.827Z,7.81
2022-10-17T15:23:03.749Z,7.82
2022-10-17T15:25:31.695Z,7.99
2022-10-17T15:27:58.751Z,7.78
2022-10-17T15:30:25.237Z,7.86
2022-10-17T15:32:52.473Z,7.93
2022-10-17T15:35:22.280Z,7.82
2022-10-17T15:37:49.490Z,8.02
2022-10-17T15:40:24.897Z,8.07
2022-10-17T15:42:52.302Z,7.92
2022-10-17T15:45:22.078Z,8.09
2022-10-17T15:47:59.370Z,8.06
2022-10-17T15:50:26.113Z,7.98
2022-10-17T15:53:07.446Z,8.14
2022-10-17T15:55:35.623Z,7.77
2022-10-17T15:58:02.187Z,7.86
2022-10-17T16:00:28.873Z,7.76
2022-10-17T16:02:55.567Z,7.56
2022-10-17T16:05:29.292Z,7.53
2022-10-17T16:07:57.544Z,7.66
2022-10-17T16:10:25.593Z,7.51
2022-10-17T16:12:52.403Z,7.52
2022-10-17T16:15:24.825Z,7.58
2022-10-17T16:17:52.869Z,7.37
2022-10-17T16:20:20.150Z,7.47
2022-10-17T16:22:47.757Z,7.55
2022-10-17T16:25:23.853Z,7.51
2022-10-17T16:27:53.032Z,7.66
2022-10-17T16:32:47.363Z,7.64
2022-10-17T16:35:20.044Z,7.88
2022-10-17T16:37:47.569Z,7.93
2022-10-17T16:40:15.034Z,7.97
2022-10-17T16:42:41.612Z,8.13
2022-10-17T16:45:08.836Z,8.02
2022-10-17T16:47:37.290Z,7.98
2022-10-17T16:50:04.467Z,8.17
2022-10-17T16:52:32.248Z,8.00
2022-10-17T16:54:58.904Z,8.11
2022-10-17T16:57:25.620Z,8.17
2022-10-17T16:59:52.699Z,8.04
2022-10-17T17:02:21.290Z,8.15
2022-10-17T17:04:48.219Z,8.22
2022-10-17T17:07:14.933Z,8.12
2022-10-17T17:09:41.563Z,8.23
2022-10-17T17:12:08.103Z,8.33
2022-10-17T17:14:34.719Z,8.26
2022-10-17T17:17:01.299Z,8.44
2022-10-17T17:19:27.920Z,8.40
2022-10-17T17:21:54.459Z,8.35
2022-10-17T17:24:21.759Z,8.57
2022-10-17T17:26:53.244Z,8.41
2022-10-17T17:29:20.332Z,8.51
2022-10-17T17:31:47.225Z,8.59
2022-10-17T17:34:17.188Z,8.50
2022-10-17T17:36:45.292Z,8.63
2022-10-17T17:39:15.506Z,8.46
2022-10-17T17:41:45.504Z,8.56
2022-10-17T17:44:16.677Z,8.56
2022-10-17T17:46:46.153Z,8.33
2022-10-17T17:49:12.943Z,8.50
2022-10-17T17:51:41.941Z,8.46
2022-10-17T17:54:11.671Z,8.37
2022-10-17T17:56:38.385Z,8.53
2022-10-17T17:59:05.760Z,8.31
2022-10-17T18:01:40.689Z,8.40
2022-10-17T18:04:08.908Z,8.34
2022-10-17T18:06:36.928Z,8.23
2022-10-17T18:09:04.874Z,8.37
2022-10-17T18:11:31.600Z,8.10
2022-10-17T18:14:01.278Z,8.12
2022-10-17T18:16:29.694Z,8.19
2022-10-17T18:18:57.014Z,8.01
2022-10-17T18:21:23.817Z,8.15
2022-10-17T18:23:53.827Z,8.10
2022-10-17T18:26:20.545Z,7.89
2022-10-17T18:28:48.001Z,7.96
2022-10-17T18:31:19.672Z,7.92
2022-10-17T18:33:46.457Z,7.76
2022-10-17T18:36:14.779Z,7.93
2022-10-17T18:38:42.178Z,7.77
2022-10-17T18:41:10.492Z,7.73
2022-10-17T18:43:39.309Z,7.83
2022-10-17T18:46:14.065Z,7.61
2022-10-17T18:48:44.582Z,7.72
2022-10-17T18:51:12.932Z,7.66
2022-10-17T18:53:45.336Z,7.55
2022-10-17T18:56:13.268Z,7.73
2022-10-17T18:58:40.666Z,7.60
2022-10-17T19:01:16.035Z,7.52
2022-10-17T19:03:43.946Z,7.70
2022-10-17T19:06:12.095Z,7.55
2022-10-17T19:08:39.845Z,7.50
2022-10-17T19:11:11.695Z,7.65
2022-10-17T19:13:38.696Z,7.51
2022-10-17T19:16:09.971Z,7.48
2022-10-17T19:18:37.126Z,7.65
2022-10-17T19:21:05.725Z,7.45
2022-10-17T19:23:33.412Z,7.44
2022-10-17T19:26:05.748Z,7.56
2022-10-17T19:28:36.014Z,7.45
2022-10-17T19:31:03.203Z,7.40
2022-10-17T19:33:34.224Z,7.58
2022-10-17T19:36:04.269Z,7.43
2022-10-17T19:38:30.871Z,7.44
2022-10-17T19:40:57.439Z,7.56
2022-10-17T19:43:24.044Z,7.40
2022-10-17T19:45:58.392Z,7.36
2022-10-17T19:48:25.980Z,7.50
2022-10-17T19:50:53.268Z,7.34
2022-10-17T19:53:23.197Z,7.34
2022-10-17T19:55:50.901Z,7.53
2022-10-17T19:58:17.593Z,7.37
2022-10-17T20:00:54.513Z,7.40
2022-10-17T20:03:22.104Z,7.46
2022-10-17T20:05:48.772Z,7.30
2022-10-17T20:08:16.550Z,7.45
2022-10-17T20:10:43.986Z,7.43
2022-10-17T20:13:10.731Z,7.30
2022-10-17T20:15:37.957Z,7.29
2022-10-17T20:18:05.969Z,7.47
2022-10-17T20:20:35.364Z,7.33
2022-10-17T20:23:02.884Z,7.34
2022-10-17T20:25:29.540Z,7.48
2022-10-17T20:27:56.161Z,7.34
2022-10-17T20:30:22.813Z,7.33
2022-10-17T20:32:49.682Z,7.45
2022-10-17T20:35:21.335Z,7.28
2022-10-17T20:37:47.962Z,7.33
2022-10-17T20:40:34.259Z,7.47
2022-10-17T20:43:01.237Z,7.25
2022-10-17T20:45:38.352Z,7.24
2022-10-17T20:48:15.815Z,7.38
2022-10-17T20:50:44.403Z,7.20
2022-10-17T20:53:35.421Z,7.22
2022-10-17T20:56:04.607Z,7.22
2022-10-17T20:58:31.339Z,7.12
2022-10-17T21:00:57.977Z,7.20
2022-10-17T21:03:25.458Z,7.28
2022-10-17T21:05:52.106Z,7.14
2022-10-17T21:08:18.643Z,7.14
2022-10-17T21:10:45.217Z,7.33
2022-10-17T21:13:11.828Z,7.13
2022-10-17T21:15:38.480Z,7.12
2022-10-17T21:18:05.025Z,7.28
2022-10-17T21:20:31.619Z,7.17
2022-10-17T21:23:00.443Z,7.05
2022-10-17T21:25:27.269Z,7.23
2022-10-17T21:27:54.434Z,7.11
2022-10-17T21:30:21.756Z,6.97
2022-10-17T21:32:51.390Z,7.11
2022-10-17T21:35:18.631Z,7.04
2022-10-17T21:37:45.248Z,6.96
2022-10-17T21:40:12.523Z,7.08
2022-10-17T21:42:39.111Z,7.03
2022-10-17T21:45:15.340Z,6.87
2022-10-17T21:48:11.272Z,6.96
2022-10-17T21:50:33.569Z,6.88
2022-10-17T21:53:00.819Z,6.67
2022-10-17T21:55:30.304Z,6.74
2022-10-17T21:57:58.843Z,6.88
2022-10-17T22:00:27.464Z,6.75
2022-10-17T22:02:54.004Z,6.78
2022-10-17T22:05:20.604Z,6.91
2022-10-17T22:07:48.144Z,6.70
2022-10-17T22:10:14.716Z,6.65
2022-10-17T22:12:41.340Z,6.85
2022-10-17T22:15:08.450Z,6.67
2022-10-17T22:17:35.044Z,6.57
2022-10-17T22:20:01.607Z,6.78
2022-10-17T22:22:30.296Z,6.65
2022-10-17T22:24:57.015Z,6.53
2022-10-17T22:27:23.595Z,6.64
2022-10-17T22:29:50.200Z,6.69
2022-10-17T22:32:20.109Z,6.62
2022-10-17T22:34:51.122Z,6.66
2022-10-17T22:37:17.756Z,6.77
2022-10-17T22:39:44.509Z,6.58
2022-10-17T22:42:11.341Z,6.56
2022-10-17T22:44:38.608Z,6.78
2022-10-17T22:47:05.176Z,6.67
2022-10-17T22:49:34.918Z,6.61
2022-10-17T22:52:03.035Z,6.76
2022-10-17T22:54:29.604Z,6.73
2022-10-17T22:56:56.916Z,6.62
2022-10-17T22:59:23.639Z,6.69
2022-10-17T23:01:50.298Z,6.78
2022-10-17T23:04:17.000Z,6.65
2022-10-17T23:06:43.563Z,6.68
2022-10-17T23:09:12.808Z,6.76
2022-10-17T23:11:39.358Z,6.59
2022-10-17T23:14:06.023Z,6.55
2022-10-17T23:16:33.903Z,6.71
2022-10-17T23:19:00.831Z,6.52
2022-10-17T23:21:27.561Z,6.32
2022-10-17T23:23:54.167Z,6.39
2022-10-17T23:26:20.817Z,6.39
2022-10-17T23:28:47.572Z,6.28
2022-10-17T23:31:16.978Z,6.37
2022-10-17T23:33:47.248Z,6.51
2022-10-17T23:36:17.796Z,6.33
2022-10-17T23:38:45.884Z,6.30
2022-10-17T23:41:12.787Z,6.40
2022-10-17T23:43:39.652Z,6.12
2022-10-17T23:46:07.050Z,5.96
2022-10-17T23:48:34.044Z,6.13
2022-10-17T23:51:02.769Z,6.13
2022-10-17T23:53:30.360Z,5.94
2022-10-17T23:55:56.991Z,5.93
2022-10-17T23:58:23.643Z,6.00
